Time;durP1;ratioP1;P1;durP2;ratioP2;P2;SDS_P1;SDS_P2;PMS_P1;PMS_P2;Temp;Humidity;BMP_temperature;BMP_pressure;BME280_temperature;BME280_humidity;BME280_pressure;Samples;Min_cycle;Max_cycle;Signal;HPM_P1;HPM_P2
2023/11/24 00:00:11;;;;;;;3.28;0.90;;;;;;;7.27;94.63;99511.75;5061563;28;20297;-66
2023/11/24 00:02:54;;;;;;;2.47;0.95;;;;;;;7.25;95.43;99529.19;5067770;28;20266;-67
2023/11/24 00:05:37;;;;;;;3.95;1.42;;;;;;;7.24;95.74;99524.81;5100502;27;20576;-68
2023/11/24 00:08:15;;;;;;;1.60;0.98;;;;;;;7.13;96.25;99520.09;5072123;28;20641;-68
2023/11/24 00:11:03;;;;;;;0.80;0.50;;;;;;;7.03;96.01;99525.94;5077210;28;20195;-68
2023/11/24 00:13:51;;;;;;;13.80;1.05;;;;;;;6.97;96.81;99529.50;5080855;28;20224;-67
2023/11/24 00:16:38;;;;;;;3.95;0.73;;;;;;;6.97;95.16;99540.25;5090291;28;20192;-68
2023/11/24 00:19:23;;;;;;;5.45;0.50;;;;;;;7.02;91.40;99532.34;5092754;28;20241;-67
2023/11/24 00:24:59;;;;;;;1.20;0.63;;;;;;;7.06;93.55;99536.28;5093202;28;20222;-68
2023/11/24 00:31:17;;;;;;;3.20;0.98;;;;;;;6.99;93.84;99538.16;5073689;28;20564;-67
2023/11/24 00:33:58;;;;;;;1.15;0.80;;;;;;;6.91;94.39;99531.16;5090518;28;20239;-68
2023/11/24 00:36:52;;;;;;;4.30;1.25;;;;;;;6.88;95.70;99539.63;5089370;28;20195;-68
2023/11/24 00:39:49;;;;;;;1.10;0.60;;;;;;;6.79;96.30;99542.75;5066560;28;20684;-68
2023/11/24 00:42:35;;;;;;;1.33;0.60;;;;;;;6.81;95.45;99554.97;5074440;28;20202;-67
2023/11/24 00:45:18;;;;;;;1.23;0.65;;;;;;;6.83;94.45;99527.84;5074136;28;20222;-67
2023/11/24 00:48:01;;;;;;;3.80;0.70;;;;;;;6.81;93.82;99529.94;5072974;28;20203;-67
2023/11/24 00:50:47;;;;;;;0.80;0.50;;;;;;;6.73;94.17;99533.66;5088944;28;20241;-67
2023/11/24 00:53:27;;;;;;;0.80;0.50;;;;;;;6.65;93.71;99547.34;5087873;28;20558;-68
2023/11/24 00:56:15;;;;;;;1.38;0.73;;;;;;;6.66;92.92;99537.41;5081775;28;20277;-66
2023/11/24 00:59:03;;;;;;;3.45;0.73;;;;;;;6.62;92.58;99544.25;5081133;28;20195;-67
2023/11/24 01:01:50;;;;;;;1.20;0.80;;;;;;;6.65;92.42;99550.03;5081314;28;20214;-67
2023/11/24 01:04:31;;;;;;;2.15;1.80;;;;;;;6.65;93.76;99539.28;5082669;28;20226;-68
2023/11/24 01:07:27;;;;;;;1.10;0.60;;;;;;;6.57;93.72;99539.50;5085153;28;20191;-68
2023/11/24 01:10:16;;;;;;;3.17;0.80;;;;;;;6.53;93.69;99533.69;5083050;28;20195;-68
2023/11/24 01:13:05;;;;;;;1.33;0.60;;;;;;;6.63;92.59;99545.91;5086720;28;20568;-67
2023/11/24 01:15:51;;;;;;;3.67;1.27;;;;;;;6.68;94.45;99535.34;5082576;28;20636;-67
2023/11/24 01:18:38;;;;;;;1.52;0.88;;;;;;;6.72;92.56;99536.59;5081098;28;20695;-67
2023/11/24 01:21:49;;;;;;;3.85;0.65;;;;;;;6.83;92.71;99549.38;5091422;28;20211;-67
2023/11/24 01:24:44;;;;;;;4.03;1.23;;;;;;;6.82;93.25;99547.75;5082829;28;20587;-66
2023/11/24 01:27:25;;;;;;;3.80;1.85;;;;;;;6.80;93.95;99533.66;5084692;28;20198;-67
2023/11/24 01:30:12;;;;;;;0.80;0.50;;;;;;;6.79;94.51;99543.59;5073300;28;20195;-67
2023/11/24 01:32:55;;;;;;;1.20;1.10;;;;;;;6.71;95.02;99524.19;5077213;28;20216;-67
2023/11/24 01:35:41;;;;;;;3.05;0.85;;;;;;;6.52;97.18;99553.56;5084027;28;20758;-67
2023/11/24 01:38:34;;;;;;;1.15;0.73;;;;;;;6.23;94.56;99559.38;5098989;28;20203;-67
2023/11/24 01:41:25;;;;;;;4.80;0.82;;;;;;;6.04;95.90;99601.28;5080275;28;20207;-67
2023/11/24 01:44:08;;;;;;;3.72;1.77;;;;;;;5.74;100.00;99572.28;5076425;28;20322;-67
2023/11/24 01:46:45;;;;;;;3.25;1.25;;;;;;;5.40;100.00;99603.53;5097401;28;20306;-66
2023/11/24 01:49:32;;;;;;;1.05;0.95;;;;;;;4.85;100.00;99623.25;5078835;28;20187;-67
2023/11/24 01:52:09;;;;;;;3.72;0.70;;;;;;;4.70;100.00;99575.09;5060357;28;20554;-67
2023/11/24 01:54:58;;;;;;;0.80;0.50;;;;;;;4.54;100.00;99629.00;5081369;28;20222;-68
2023/11/24 01:57:47;;;;;;;1.42;1.05;;;;;;;4.39;100.00;99582.72;5069197;28;20187;-67
2023/11/24 02:00:31;;;;;;;0.80;0.50;;;;;;;4.34;100.00;99577.13;5061650;28;20306;-66
2023/11/24 02:03:12;;;;;;;1.45;0.88;;;;;;;4.35;100.00;99589.50;5072904;28;20183;-67
2023/11/24 02:05:54;;;;;;;0.90;0.65;;;;;;;4.34;100.00;99571.78;5076844;28;20191;-68
2023/11/24 02:08:53;;;;;;;1.00;0.85;;;;;;;4.32;100.00;99571.13;5107416;28;20187;-69
2023/11/24 02:11:45;;;;;;;0.80;0.50;;;;;;;4.15;100.00;99561.72;5073945;28;20301;-67
2023/11/24 02:14:40;;;;;;;0.90;0.70;;;;;;;4.00;100.00;99555.63;5056194;28;20309;-67
2023/11/24 02:17:32;;;;;;;0.80;0.50;;;;;;;3.98;100.00;99549.63;5094953;28;20194;-68
2023/11/24 02:20:11;;;;;;;0.80;0.50;;;;;;;3.91;100.00;99555.75;5072909;28;20198;-67
2023/11/24 02:22:51;;;;;;;2.13;0.73;;;;;;;3.92;100.00;99562.75;5075532;28;20206;-67
2023/11/24 02:25:39;;;;;;;0.80;0.57;;;;;;;3.88;100.00;99557.97;5092755;28;20199;-68
2023/11/24 02:28:18;;;;;;;0.90;0.70;;;;;;;3.77;100.00;99543.28;5075009;28;20234;-67
2023/11/24 02:31:09;;;;;;;1.10;0.60;;;;;;;3.73;100.00;99551.84;5092166;28;20599;-67
2023/11/24 02:33:55;;;;;;;0.80;0.57;;;;;;;3.78;100.00;99536.88;5090336;27;20211;-67
2023/11/24 02:36:42;;;;;;;0.80;0.50;;;;;;;3.71;100.00;99527.97;5091589;28;20307;-68
2023/11/24 02:39:34;;;;;;;0.80;0.50;;;;;;;3.70;100.00;99537.03;5075056;28;20662;-67
2023/11/24 02:42:33;;;;;;;0.90;0.60;;;;;;;3.68;100.00;99533.69;5107449;27;20554;-68
2023/11/24 02:45:19;;;;;;;0.80;0.57;;;;;;;3.70;100.00;99529.00;5094377;28;20728;-68
2023/11/24 02:47:59;;;;;;;0.80;0.60;;;;;;;3.66;100.00;99527.72;5113277;27;20681;-67
2023/11/24 02:50:45;;;;;;;0.80;0.47;;;;;;;3.72;100.00;99516.25;5071891;28;20244;-67
2023/11/24 02:53:43;;;;;;;1.30;1.17;;;;;;;3.75;100.00;99528.41;5070491;28;20196;-67
2023/11/24 02:56:49;;;;;;;0.80;0.60;;;10.80;99.90;;;3.67;100.00;99517.84;5077614;28;20200;-67
2023/11/24 02:59:40;;;;;;;1.13;1.00;;;3.90;1.00;;;3.74;100.00;99510.69;5076080;28;20278;-66
2023/11/24 03:02:38;;;;;;;0.82;0.52;;;3.90;1.00;;;3.66;100.00;99508.16;5059156;28;20588;-67
2023/11/24 03:05:26;;;;;;;1.90;0.60;;;3.80;99.90;;;3.62;100.00;99517.59;5063250;28;20216;-67
2023/11/24 03:08:10;;;;;;;0.95;0.85;;;3.80;1.00;;;3.55;100.00;99517.53;5074510;28;20200;-67
2023/11/24 03:11:04;;;;;;;5.72;0.82;;;3.80;1.00;;;3.65;100.00;99514.53;5080073;28;20188;-67
2023/11/24 03:13:44;;;;;;;0.80;0.60;;;3.80;99.90;;;3.56;100.00;99527.22;5079226;28;20214;-66
2023/11/24 03:16:29;;;;;;;1.30;0.60;;;3.80;1.00;;;3.64;100.00;99511.03;5063927;28;20192;-67
2023/11/24 03:19:15;;;;;;;3.22;0.70;;;3.80;1.00;;;3.70;100.00;99520.97;5064299;28;20751;-66
2023/11/24 03:22:07;;;;;;;0.80;0.50;;;3.80;99.90;;;3.67;100.00;99516.00;5064240;28;20203;-67
2023/11/24 03:24:47;;;;;;;3.17;0.80;;;3.80;99.90;;;3.72;100.00;99518.94;5064791;28;20219;-67
2023/11/24 03:27:53;;;;;;;11.98;1.58;;;3.90;1.00;;;3.71;100.00;99525.31;5073742;28;20264;-67
2023/11/24 03:30:43;;;;;;;0.80;0.50;;;3.80;26.30;;;3.86;100.00;99527.91;5094717;28;20207;-67
2023/11/24 03:33:33;;;;;;;1.55;0.80;;;3.90;99.90;;;4.02;100.00;99521.47;5075435;28;20572;-67
2023/11/24 03:36:22;;;;;;;4.55;1.05;;;4.00;99.90;;;4.18;100.00;99518.50;5087047;28;20227;-68
2023/11/24 03:39:29;;;;;;;3.00;1.08;;;4.20;99.90;;;4.26;100.00;99519.16;5093184;28;20187;-69
2023/11/24 03:42:19;;;;;;;2.85;0.77;;;4.30;99.90;;;4.39;100.00;99515.78;5069708;28;20205;-66
2023/11/24 03:45:04;;;;;;;3.97;0.85;;;4.40;99.90;;;4.40;100.00;99509.41;5082746;28;20219;-67
2023/11/24 03:47:59;;;;;;;6.93;0.95;;;4.40;99.90;;;4.50;100.00;99501.84;5082352;28;20207;-67
2023/11/24 03:50:44;;;;;;;4.68;1.48;;;4.50;1.00;;;4.59;100.00;99497.97;5068293;28;20192;-67
2023/11/24 03:53:39;;;;;;;1.20;0.73;;;4.60;1.00;;;4.63;100.00;99491.19;5056886;28;20697;-67
2023/11/24 03:56:23;;;;;;;2.88;1.00;;;4.60;1.00;;;4.73;100.00;99496.19;5085186;28;20257;-67
2023/11/24 03:59:15;;;;;;;2.65;2.15;;;4.70;1.00;;;4.67;100.00;99481.72;5061212;28;20184;-67
2023/11/24 04:05:02;;;;;;;1.80;0.95;;;4.70;1.00;;;4.54;100.00;99480.84;5072459;28;20316;-67
2023/11/24 04:07:51;;;;;;;1.77;0.80;;;4.60;1.00;;;4.58;100.00;99485.59;5089677;28;20234;-67
2023/11/24 04:10:29;;;;;;;1.95;1.13;;;4.60;1.00;;;4.66;100.00;99487.28;5067743;28;20596;-65
2023/11/24 04:13:23;;;;;;;5.00;0.95;;;4.70;1.00;;;4.75;100.00;99492.28;5089769;28;20241;-68
2023/11/24 04:16:10;;;;;;;5.10;1.25;;;4.80;1.00;;;4.81;100.00;99507.56;5053847;28;20207;-67
2023/11/24 04:19:00;;;;;;;2.55;1.33;;;4.80;1.00;;;4.90;100.00;99500.19;5062278;28;20660;-68
2023/11/24 04:21:56;;;;;;;1.38;0.70;;;4.90;1.00;;;4.91;100.00;99492.97;5093787;28;20195;-66
2023/11/24 04:27:57;;;;;;;1.13;0.52;;;4.90;1.00;;;4.86;100.00;99501.63;5090215;28;20195;-68
2023/11/24 04:30:39;;;;;;;1.98;1.02;;;4.90;1.00;;;4.68;100.00;99499.47;5074857;28;20191;-67
2023/11/24 04:33:20;;;;;;;0.80;0.50;;;4.70;1.00;;;4.38;100.00;99490.00;5068531;28;20608;-69
2023/11/24 04:36:04;;;;;;;0.80;0.52;;;4.50;1.00;;;4.12;100.00;99509.38;5071933;28;20231;-66
2023/11/24 04:38:53;;;;;;;0.80;0.50;;;4.30;1.00;;;3.92;100.00;99495.03;5080235;28;20195;-67
2023/11/24 04:41:37;;;;;;;1.70;0.60;;;4.10;99.90;;;3.66;100.00;99525.03;5089870;28;20196;-67
2023/11/24 04:44:18;;;;;;;1.10;0.80;;;3.80;99.90;;;3.46;100.00;99487.41;5092403;28;20203;-66
2023/11/24 04:47:03;;;;;;;0.80;0.50;;;3.60;99.90;;;3.25;100.00;99489.22;5062408;28;20206;-67
2023/11/24 04:49:50;;;;;;;2.25;1.23;;;3.50;99.90;;;3.14;100.00;99484.38;5073562;28;20749;-67
2023/11/24 04:52:28;;;;;;;1.30;0.70;;;3.40;99.90;;;3.08;100.00;99456.56;5069484;28;20198;-67
2023/11/24 04:55:09;;;;;;;0.80;0.65;;;3.30;1.00;;;3.03;100.00;99459.81;5077239;28;20265;-67
2023/11/24 04:57:49;;;;;;;0.80;0.50;;;3.20;99.90;;;3.04;100.00;99456.13;5069363;28;20219;-66
2023/11/24 05:00:31;;;;;;;1.92;0.82;;;3.20;99.90;;;3.10;100.00;99464.41;5084977;28;20190;-65
2023/11/24 05:03:14;;;;;;;0.80;0.50;;;3.30;99.90;;;3.15;100.00;99459.31;5065820;28;20577;-67
2023/11/24 05:05:56;;;;;;;1.85;0.70;;;3.30;99.90;;;3.32;100.00;99460.72;5066688;28;20204;-67
2023/11/24 05:08:41;;;;;;;1.00;0.65;;;3.40;99.90;;;3.39;100.00;99450.91;5061429;28;20189;-67
2023/11/24 05:11:32;;;;;;;0.80;0.50;;;3.50;99.90;;;3.45;100.00;99458.16;5080329;28;20215;-68
2023/11/24 05:14:20;;;;;;;2.03;0.60;;;3.50;99.90;;;3.46;100.00;99443.78;5083957;28;20238;-67
2023/11/24 05:17:12;;;;;;;3.55;0.68;;;3.60;99.90;;;3.43;100.00;99449.53;5076586;28;20195;-68
2023/11/24 05:19:58;;;;;;;9.90;0.98;;;3.60;99.90;;;3.42;100.00;99466.59;5088858;28;20196;-68
2023/11/24 05:22:38;;;;;;;1.35;1.25;;;3.50;99.90;;;3.44;100.00;99469.88;5063457;28;20207;-67
2023/11/24 05:25:15;;;;;;;4.13;2.08;;;3.60;99.90;;;3.51;100.00;99470.78;5073118;28;20257;-66
2023/11/24 05:27:59;;;;;;;0.80;0.70;;;3.60;99.90;;;3.54;100.00;99462.38;5076878;28;20190;-66
2023/11/24 05:30:40;;;;;;;2.45;0.90;;;3.60;99.90;;;3.48;100.00;99463.16;5074382;28;20244;-66
2023/11/24 05:34:35;;;;;;;0.85;0.50;;;3.60;99.90;;;3.42;100.00;99463.91;5058622;28;20206;-67
2023/11/24 05:37:19;;;;;;;0.80;0.50;;;3.60;99.90;;;3.47;100.00;99461.50;5063390;28;20245;-66
2023/11/24 05:39:56;;;;;;;1.20;0.80;;;3.60;99.90;;;3.49;100.00;99454.91;5073100;28;20560;-67
2023/11/24 05:42:44;;;;;;;1.55;0.60;;;3.60;99.90;;;3.41;100.00;99440.84;5085674;28;20207;-67
2023/11/24 05:45:29;;;;;;;10.02;2.53;;;3.60;99.90;;;3.42;100.00;99437.16;5077715;28;20222;-68
2023/11/24 05:48:08;;;;;;;1.65;0.60;;;3.50;99.90;;;3.50;100.00;99450.41;5070760;28;20581;-68
2023/11/24 05:50:51;;;;;;;1.23;0.70;;;3.60;99.90;;;3.47;100.00;99448.13;5065621;28;20188;-68
2023/11/24 05:53:33;;;;;;;1.90;1.25;;;3.60;99.90;;;3.50;100.00;99447.72;5054841;28;20212;-67
2023/11/24 05:56:13;;;;;;;2.00;0.70;;;3.60;99.90;;;3.52;100.00;99448.38;5076112;28;20198;-67
2023/11/24 05:59:00;;;;;;;3.17;1.10;;;3.60;99.90;;;3.62;100.00;99432.00;5068276;28;20673;-67
2023/11/24 06:01:39;;;;;;;0.80;0.50;;;3.70;99.90;;;3.59;100.00;99437.72;5088626;28;20533;-67
2023/11/24 06:04:23;;;;;;;0.80;0.50;;;3.70;99.90;;;3.58;100.00;99444.13;5076919;28;20223;-68
2023/11/24 06:07:01;;;;;;;7.35;0.95;;;3.70;99.90;;;3.72;100.00;99449.38;5059566;28;20225;-67
2023/11/24 06:09:42;;;;;;;2.65;0.70;;;3.80;99.90;;;3.72;100.00;99446.72;5065090;28;20289;-67
2023/11/24 06:12:20;;;;;;;1.65;1.40;;;3.80;99.90;;;3.76;100.00;99445.28;5071912;28;20206;-67
2023/11/24 06:14:58;;;;;;;1.75;0.70;;;3.80;99.90;;;3.78;100.00;99443.25;5082950;28;20283;-66
2023/11/24 06:17:36;;;;;;;1.52;0.68;;;3.80;99.90;;;3.71;100.00;99442.38;5072080;28;20196;-67
2023/11/24 06:20:14;;;;;;;0.80;0.60;;;3.80;99.90;;;3.75;100.00;99424.91;5070366;28;20199;-67
2023/11/24 06:23:03;;;;;;;5.03;1.48;;;3.80;99.90;;;3.75;100.00;99424.06;5062107;28;20220;-66
2023/11/24 06:25:45;;;;;;;0.80;0.50;;;3.80;99.90;;;3.76;100.00;99423.88;5060747;28;20674;-68
2023/11/24 06:28:30;;;;;;;6.80;1.13;;;3.80;99.90;;;3.81;100.00;99431.34;5078374;28;20195;-68
2023/11/24 06:31:10;;;;;;;2.33;1.50;;;3.90;99.90;;;3.69;100.00;99431.03;5069846;28;20191;-67
2023/11/24 06:33:53;;;;;;;3.55;0.80;;;3.80;99.90;;;3.73;100.00;99432.28;5063955;28;20268;-68
2023/11/24 06:36:36;;;;;;;0.88;0.75;;;3.80;35.20;;;3.71;100.00;99430.84;5068236;28;20688;-68
2023/11/24 06:39:19;;;;;;;3.28;0.80;;;3.80;33.00;;;3.74;100.00;99425.91;5059351;28;20294;-67
2023/11/24 06:41:57;;;;;;;2.05;1.45;;;3.80;1.00;;;3.80;100.00;99418.97;5069380;28;20194;-67
2023/11/24 06:44:33;;;;;;;1.35;0.57;;;3.80;1.00;;;3.88;100.00;99419.66;5073315;28;20243;-68
2023/11/24 06:47:23;;;;;;;2.50;1.42;;;3.90;1.00;;;3.91;100.00;99416.59;5063126;28;20195;-68
2023/11/24 06:50:06;;;;;;;2.28;0.93;;;3.90;1.00;;;4.02;100.00;99425.13;5074908;28;20569;-67
2023/11/24 06:52:48;;;;;;;1.63;1.00;;;4.00;1.00;;;4.10;100.00;99431.13;5071311;28;20191;-67
2023/11/24 06:55:31;;;;;;;1.95;0.82;;;4.10;1.00;;;4.12;100.00;99417.53;5075646;28;20697;-67
2023/11/24 06:58:34;;;;;;;1.50;0.95;;;4.20;1.00;;;4.18;100.00;99427.47;5071939;28;20565;-67
2023/11/24 07:01:38;;;;;;;7.07;1.88;;;4.20;1.00;;;4.18;100.00;99422.09;5090856;28;20195;-67
2023/11/24 07:04:29;;;;;;;6.07;1.50;;;4.20;99.90;;;4.22;100.00;99424.19;5071160;28;20219;-67
2023/11/24 07:07:17;;;;;;;1.85;0.90;;;4.30;1.00;;;4.25;100.00;99423.00;5068479;28;20223;-67
2023/11/24 07:10:08;;;;;;;1.15;0.60;;;4.30;99.90;;;4.27;100.00;99432.47;5059725;28;20212;-68
2023/11/24 07:12:51;;;;;;;2.35;1.05;;;4.30;99.90;;;4.31;100.00;99432.88;5091605;28;20191;-68
2023/11/24 07:15:50;;;;;;;1.20;0.57;;;4.30;99.90;;;4.29;100.00;99418.88;5069599;28;20276;-68
2023/11/24 07:18:34;;;;;;;2.33;1.02;;;4.30;1.00;;;4.19;100.00;99413.06;5092025;28;20189;-68
2023/11/24 07:21:13;;;;;;;1.00;0.50;;;4.30;1.00;;;4.09;100.00;99404.56;5075361;28;20325;-68
2023/11/24 07:23:53;;;;;;;2.85;0.93;;;4.20;1.00;;;4.06;100.00;99415.66;5096925;28;20206;-69
2023/11/24 07:26:36;;;;;;;3.63;1.17;;;4.20;1.00;;;4.23;100.00;99415.16;5070359;28;20218;-68
2023/11/24 07:29:16;;;;;;;3.13;1.42;;;4.20;99.90;;;4.12;100.00;99407.66;5064268;28;20298;-68
2023/11/24 07:31:55;;;;;;;2.08;1.15;;;4.20;1.00;;;4.08;100.00;99418.94;5073543;28;20569;-69
2023/11/24 07:34:33;;;;;;;2.35;0.95;;;4.20;1.00;;;4.10;100.00;99415.06;5081340;28;20345;-68
2023/11/24 07:37:15;;;;;;;2.97;0.93;;;4.20;1.00;;;4.04;100.00;99398.97;5074552;28;20202;-68
2023/11/24 07:39:57;;;;;;;4.40;1.35;;;4.10;99.90;;;4.07;100.00;99406.59;5080931;28;20297;-68
2023/11/24 07:42:40;;;;;;;7.70;2.38;;;4.10;99.90;;;4.02;100.00;99404.50;5087124;28;20294;-68
2023/11/24 07:45:22;;;;;;;5.10;1.70;;;4.10;99.90;;;4.02;100.00;99411.72;5073855;28;20215;-68
2023/11/24 07:48:02;;;;;;;4.15;1.20;;;4.10;99.90;;;4.03;100.00;99416.03;5072159;28;20231;-68
2023/11/24 07:50:44;;;;;;;3.08;1.30;;;4.10;99.90;;;4.06;100.00;99423.69;5081224;28;20566;-68
2023/11/24 07:53:30;;;;;;;1.40;1.00;;;4.10;1.00;;;4.14;100.00;99407.47;5094037;28;20199;-69
2023/11/24 07:56:15;;;;;;;1.75;1.10;;;4.20;1.00;;;4.24;100.00;99421.31;5076724;28;20537;-69
2023/11/24 07:59:12;;;;;;;2.45;1.50;;;4.20;99.90;;;4.30;100.00;99420.56;5071005;28;20192;-68
2023/11/24 08:02:03;;;;;;;3.05;1.02;;;4.30;99.90;;;4.43;100.00;99422.47;5089088;28;20187;-69
2023/11/24 08:04:54;;;;;;;4.30;0.90;;;4.40;99.90;;;4.41;100.00;99417.28;5075729;28;20203;-69
2023/11/24 08:07:38;;;;;;;17.70;2.00;;;4.40;99.90;;;4.62;100.00;99438.63;5071174;28;20191;-69
2023/11/24 08:10:31;;;;;;;13.35;1.00;;;4.50;99.90;;;4.58;99.42;99432.03;5088129;28;20657;-67
2023/11/24 08:13:15;;;;;;;6.40;1.17;;;4.60;99.90;;;4.67;99.95;99438.88;5071691;28;20286;-68
2023/11/24 08:15:55;;;;;;;2.25;0.95;;;4.70;99.90;;;4.79;99.39;99433.78;5093395;28;20183;-70
2023/11/24 08:18:39;;;;;;;9.18;1.50;;;4.70;99.90;;;4.80;99.05;99430.88;5093422;28;20195;-69
2023/11/24 08:21:28;;;;;;;3.63;0.80;;;4.80;99.90;;;4.75;99.49;99425.28;5069373;28;20252;-69
2023/11/24 08:24:13;;;;;;;4.35;1.52;;;4.80;99.90;;;4.91;98.76;99417.91;5073213;28;20212;-68
2023/11/24 08:26:57;;;;;;;3.35;2.92;;;4.80;99.90;;;4.77;98.61;99423.25;5059436;28;20282;-69
2023/11/24 08:29:53;;;;;;;1.83;1.10;;;4.80;99.90;;;4.66;98.33;99415.75;5071057;28;20190;-69
2023/11/24 08:32:36;;;;;;;1.63;1.40;;;4.70;99.90;;;4.61;99.47;99422.75;5090109;28;20249;-68
2023/11/24 08:35:25;;;;;;;1.17;1.05;;;4.70;99.90;;;4.56;99.50;99399.25;5074565;28;20211;-68
2023/11/24 08:38:14;;;;;;;7.75;1.20;;;4.60;99.90;;;4.58;98.83;99401.72;5063140;28;20307;-69
2023/11/24 08:40:52;;;;;;;2.42;1.88;;;4.60;99.90;;;4.61;99.22;99402.16;5064762;28;20192;-69
2023/11/24 08:43:38;;;;;;;3.95;1.45;;;4.60;99.90;;;4.67;98.32;99406.72;5071875;28;20720;-68
2023/11/24 08:46:30;;;;;;;2.67;1.33;;;4.70;99.90;;;4.64;98.17;99417.84;5072385;28;20219;-70
2023/11/24 08:49:21;;;;;;;5.60;1.10;;;4.70;99.90;;;4.66;97.63;99399.69;5042890;28;20203;-70
2023/11/24 08:52:09;;;;;;;2.33;2.13;;;4.70;99.90;;;4.74;98.55;99406.75;5046929;28;20211;-68
2023/11/24 08:54:56;;;;;;;1.45;1.35;;;4.70;99.90;;;4.75;97.21;99411.06;5036610;28;20579;-69
2023/11/24 08:57:48;;;;;;;1.42;1.25;;;4.70;99.90;;;4.78;95.92;99400.78;5054332;28;20192;-68
2023/11/24 09:00:36;;;;;;;1.80;1.45;;;4.80;99.90;;;4.79;96.75;99410.44;5051070;28;20198;-68
2023/11/24 09:03:27;;;;;;;1.00;0.80;;;4.80;99.90;;;4.88;97.82;99403.09;5048875;28;20187;-68
2023/11/24 09:06:11;;;;;;;1.35;1.25;;;4.80;99.90;;;4.84;96.22;99407.19;5072917;28;20224;-67
2023/11/24 09:09:02;;;;;;;3.28;1.65;;;4.90;99.90;;;4.98;96.32;99418.78;5065590;28;20195;-68
2023/11/24 09:11:46;;;;;;;5.22;0.88;;;4.90;99.90;;;4.92;96.09;99392.78;5049758;28;20191;-68
2023/11/24 09:14:30;;;;;;;5.00;1.50;;;4.90;99.90;;;4.84;96.44;99401.00;5050313;28;20302;-68
2023/11/24 09:17:17;;;;;;;4.15;1.63;;;4.90;99.90;;;5.01;96.93;99399.59;5074295;28;20215;-68
2023/11/24 09:20:12;;;;;;;1.20;0.85;;;4.90;99.90;;;5.13;95.96;99395.31;5041766;28;20691;-68
2023/11/24 09:22:53;;;;;;;1.98;1.30;;;5.10;99.90;;;5.11;94.86;99397.34;5053968;28;20204;-68
2023/11/24 09:25:38;;;;;;;1.60;0.70;;;5.10;99.90;;;5.10;94.71;99390.34;5049921;28;20223;-68
2023/11/24 09:28:27;;;;;;;0.80;0.60;;;5.10;99.90;;;5.00;93.30;99381.84;5076494;28;20196;-68
2023/11/24 09:31:13;;;;;;;1.58;0.98;;;5.00;99.90;;;4.95;93.33;99373.59;5077431;28;20226;-69
2023/11/24 09:33:59;;;;;;;4.32;1.52;;;5.00;99.90;;;4.92;94.42;99376.69;5059355;28;20646;-68
2023/11/24 09:36:53;;;;;;;2.42;1.33;;;4.90;99.90;;;5.04;95.40;99370.53;5077016;28;20171;-68
2023/11/24 09:42:55;;;;;;;3.03;0.70;;;4.90;99.90;;;4.93;93.83;99362.28;5071139;28;20205;-67
2023/11/24 09:45:48;;;;;;;4.65;1.27;;;5.00;99.90;;;4.98;92.61;99359.81;5051288;28;20269;-68
2023/11/24 09:48:39;;;;;;;2.00;0.90;;;5.00;99.90;;;4.99;91.62;99372.16;5093240;28;20214;-68
2023/11/24 09:51:44;;;;;;;7.72;1.65;;;5.00;99.90;;;4.88;89.88;99364.72;5088644;28;20692;-69
2023/11/24 09:54:36;;;;;;;3.30;1.42;;;4.90;99.90;;;4.94;89.73;99361.25;5093977;28;20223;-68
2023/11/24 09:57:32;;;;;;;4.00;1.50;;;4.90;99.90;;;5.04;91.42;99353.59;5075463;28;20253;-68
2023/11/24 10:00:17;;;;;;;5.90;1.77;;;5.00;99.90;;;5.09;90.34;99345.78;5088698;28;20191;-67
2023/11/24 10:03:07;;;;;;;1.23;0.80;;;5.10;99.90;;;5.21;89.98;99347.66;5076174;28;20210;-65
2023/11/24 10:05:45;;;;;;;2.38;0.85;;;;;;;5.20;88.27;99331.78;5078967;28;20211;-67
2023/11/24 10:08:27;;;;;;;5.40;1.20;;;5.00;99.90;;;5.36;89.48;99335.91;5078143;28;20211;-68
2023/11/24 10:11:27;;;;;;;1.60;0.70;;;5.30;99.90;;;5.27;87.28;99337.97;5079945;28;20202;-66
2023/11/24 10:14:04;;;;;;;3.30;0.70;;;5.30;99.90;;;5.20;87.93;99319.19;5069479;28;20313;-66
2023/11/24 10:16:41;;;;;;;6.50;1.10;;;5.20;99.90;;;5.54;88.90;99328.88;5068267;28;20193;-67
2023/11/24 10:19:16;;;;;;;3.83;0.70;;;5.40;99.90;;;5.29;86.83;99335.91;5063587;28;20184;-67
2023/11/24 10:21:57;;;;;;;5.93;0.90;;;5.40;99.90;;;5.42;86.42;99309.06;5072320;28;20673;-67
2023/11/24 10:24:42;;;;;;;2.53;1.33;;;5.40;99.90;;;5.46;84.99;99323.75;5068681;28;20223;-67
2023/11/24 10:27:26;;;;;;;1.23;0.60;;;5.40;99.90;;;5.44;83.83;99292.78;5056506;28;20224;-68
2023/11/24 10:29:59;;;;;;;3.63;0.98;;;5.50;99.90;;;5.56;84.14;99300.00;5086254;28;20294;-67
2023/11/24 10:32:39;;;;;;;1.20;0.93;;;5.50;99.90;;;5.70;85.84;99284.69;5081057;28;20207;-66
2023/11/24 10:35:24;;;;;;;1.42;0.70;;;5.60;99.90;;;5.56;83.91;99289.28;5084345;28;20204;-66
2023/11/24 10:38:22;;;;;;;2.05;1.67;;;5.60;99.90;;;5.42;84.62;99271.50;5072453;28;20198;-67
2023/11/24 10:41:18;;;;;;;2.13;0.70;;;5.50;99.90;;;5.55;84.07;99265.31;5067598;28;20677;-67
2023/11/24 10:44:05;;;;;;;1.95;1.42;;;5.50;99.90;;;5.54;83.35;99279.75;5076489;28;20215;-68
2023/11/24 10:47:10;;;;;;;9.70;1.33;;;5.50;99.90;;;5.55;82.75;99260.78;5070791;28;20584;-68
2023/11/24 10:50:09;;;;;;;5.63;1.00;;;5.50;99.90;;;5.79;83.56;99261.13;5053892;28;20245;-66
2023/11/24 10:52:59;;;;;;;0.90;0.52;;;5.60;99.90;;;5.74;83.57;99242.16;5073691;28;20203;-67
2023/11/24 10:55:46;;;;;;;3.03;1.02;;;5.60;99.90;;;5.82;81.88;99250.78;5079867;28;20216;-67
2023/11/24 10:58:32;;;;;;;7.90;1.42;;;5.70;99.90;;;5.85;82.63;99249.56;5073179;28;20198;-67
2023/11/24 11:01:26;;;;;;;1.42;0.90;;;5.80;99.90;;;5.90;82.74;99244.41;5073431;28;20196;-68
2023/11/24 11:04:11;;;;;;;3.03;1.38;;;5.80;99.90;;;5.89;82.39;99234.72;5045144;28;20212;-67
2023/11/24 11:07:16;;;;;;;3.00;1.55;;;5.80;99.90;;;5.80;81.51;99228.72;5057142;28;20215;-68
2023/11/24 11:10:03;;;;;;;2.30;0.98;;;5.80;99.90;;;5.78;82.56;99235.31;5077209;28;20287;-68
2023/11/24 11:15:40;;;;;;;1.77;0.65;;;;;;;6.02;80.75;99237.34;5075316;28;20515;-67
2023/11/24 11:18:27;;;;;;;0.90;0.60;;;;;;;5.94;79.71;99235.72;5077040;28;20222;-67
2023/11/24 11:21:22;;;;;;;1.25;1.00;;;;;;;6.11;80.84;99225.31;5076058;28;20191;-66
2023/11/24 11:24:09;;;;;;;1.08;0.90;;;;;;;6.23;79.04;99220.94;5081509;28;20591;-67
2023/11/24 11:26:53;;;;;;;3.53;1.70;;;;;;;6.24;78.13;99222.59;5085426;28;20207;-66
2023/11/24 11:29:46;;;;;;;0.93;0.80;;;;;;;6.13;79.72;99204.44;5089383;28;20196;-68
2023/11/24 11:32:37;;;;;;;1.67;0.98;;;5.90;99.90;;;5.99;77.75;99219.81;5095396;28;20555;-66
2023/11/24 11:35:35;;;;;;;1.80;0.85;;;6.00;99.90;;;6.20;79.50;99223.19;5092977;28;20587;-66
2023/11/24 11:38:40;;;;;;;1.42;1.15;;;6.00;99.90;;;5.82;77.01;99212.38;5070567;28;20226;-66
2023/11/24 11:41:51;;;;;;;2.20;0.70;;;5.90;99.90;;;5.66;78.47;99194.91;5081705;28;20202;-67
2023/11/24 11:44:39;;;;;;;2.42;1.80;;;5.70;99.90;;;5.97;79.92;99194.19;5079835;28;20221;-68
2023/11/24 11:47:28;;;;;;;9.35;1.95;;;5.90;99.90;;;5.94;80.40;99194.63;5088670;28;20241;-67
2023/11/24 11:50:39;;;;;;;3.83;1.88;;;5.90;99.90;;;5.97;78.25;99178.91;5081811;28;20191;-68
2023/11/24 11:53:28;;;;;;;2.05;1.52;;;5.90;99.90;;;5.98;77.62;99177.88;5087942;28;20195;-67
2023/11/24 11:56:27;;;;;;;1.42;0.70;;;5.90;99.90;;;5.91;77.10;99166.34;5090262;28;20195;-68
2023/11/24 11:59:06;;;;;;;15.77;1.40;;;5.90;99.90;;;5.76;77.60;99173.78;5069489;28;20191;-66
2023/11/24 12:02:00;;;;;;;2.80;1.38;;;5.80;99.90;;;5.81;78.44;99159.75;5078857;28;20199;-66
2023/11/24 12:04:42;;;;;;;0.80;0.50;;;5.80;99.90;;;5.83;78.55;99155.81;5074474;28;20216;-67
2023/11/24 12:07:26;;;;;;;1.52;1.17;;;5.90;99.90;;;6.11;79.51;99163.53;5074309;28;20214;-66
2023/11/24 12:10:13;;;;;;;3.83;1.02;;;5.90;99.90;;;6.10;78.80;99153.84;5084177;28;20219;-66
2023/11/24 12:12:58;;;;;;;1.00;0.80;;;6.10;99.90;;;6.11;78.04;99158.19;5070222;28;20682;-67
2023/11/24 12:15:47;;;;;;;15.27;2.45;;;6.10;99.90;;;6.00;77.85;99145.44;5070633;28;20238;-66
2023/11/24 12:18:24;;;;;;;1.00;0.70;;;6.00;99.90;;;6.03;77.78;99142.31;5067648;28;20200;-67
2023/11/24 12:21:18;;;;;;;1.25;1.15;;;6.00;99.90;;;5.92;77.03;99133.09;5068150;28;20198;-66
2023/11/24 12:24:13;;;;;;;4.72;1.90;;;5.90;99.90;;;6.01;77.31;99139.03;5071990;28;20305;-68
2023/11/24 12:27:04;;;;;;;2.65;1.67;;;5.90;99.90;;;6.37;77.35;99131.16;5080600;28;20570;-67
2023/11/24 12:29:50;;;;;;;4.18;1.52;;;6.10;99.90;;;6.76;76.25;99126.50;5073467;28;20245;-67
2023/11/24 12:32:39;;;;;;;2.35;0.85;;;6.40;99.90;;;6.73;75.10;99129.66;5087816;28;20198;-67